sensor_id;sensor_type;location;lat;lon;timestamp;P1;durP1;ratioP1;P2;durP2;ratioP2
48777;SDS011;34578;0.000;0.000;2022-11-02T00:00:55;1.83;;;0.70;;
48777;SDS011;34578;0.000;0.000;2022-11-02T00:05:59;1.35;;;0.60;;
48777;SDS011;34578;0.000;0.000;2022-11-02T00:10:59;1.53;;;0.57;;
48777;SDS011;34578;0.000;0.000;2022-11-02T00:16:01;1.83;;;0.53;;
48777;SDS011;34578;0.000;0.000;2022-11-02T00:21:03;1.48;;;0.65;;
48777;SDS011;34578;0.000;0.000;2022-11-02T00:26:04;0.70;;;0.40;;
48777;SDS011;34578;0.000;0.000;2022-11-02T00:31:04;0.90;;;0.40;;
48777;SDS011;34578;0.000;0.000;2022-11-02T00:36:05;1.95;;;0.63;;
48777;SDS011;34578;0.000;0.000;2022-11-02T00:41:05;0.95;;;0.60;;
48777;SDS011;34578;0.000;0.000;2022-11-02T00:46:06;1.85;;;0.63;;
48777;SDS011;34578;0.000;0.000;2022-11-02T00:51:06;1.37;;;0.70;;
48777;SDS011;34578;0.000;0.000;2022-11-02T00:56:07;1.10;;;0.73;;
48777;SDS011;34578;0.000;0.000;2022-11-02T01:01:08;1.13;;;0.57;;
48777;SDS011;34578;0.000;0.000;2022-11-02T01:06:13;1.50;;;0.70;;
48777;SDS011;34578;0.000;0.000;2022-11-02T01:11:15;1.92;;;0.70;;
48777;SDS011;34578;0.000;0.000;2022-11-02T01:16:17;1.90;;;0.70;;
48777;SDS011;34578;0.000;0.000;2022-11-02T01:21:18;1.02;;;0.68;;
48777;SDS011;34578;0.000;0.000;2022-11-02T01:26:19;1.45;;;0.70;;
48777;SDS011;34578;0.000;0.000;2022-11-02T01:31:20;2.00;;;0.65;;
48777;SDS011;34578;0.000;0.000;2022-11-02T01:36:20;1.92;;;0.52;;
48777;SDS011;34578;0.000;0.000;2022-11-02T01:41:21;0.95;;;0.50;;
48777;SDS011;34578;0.000;0.000;2022-11-02T01:46:22;1.48;;;0.70;;
48777;SDS011;34578;0.000;0.000;2022-11-02T01:51:34;1.80;;;0.70;;
48777;SDS011;34578;0.000;0.000;2022-11-02T01:56:39;0.82;;;0.57;;
48777;SDS011;34578;0.000;0.000;2022-11-02T02:01:40;1.80;;;0.88;;
48777;SDS011;34578;0.000;0.000;2022-11-02T02:06:41;0.40;;;0.40;;
48777;SDS011;34578;0.000;0.000;2022-11-02T02:11:43;2.20;;;0.60;;
48777;SDS011;34578;0.000;0.000;2022-11-02T02:22:22;1.35;;;0.70;;
48777;SDS011;34578;0.000;0.000;2022-11-02T02:33:29;0.57;;;0.40;;
48777;SDS011;34578;0.000;0.000;2022-11-02T02:38:44;0.95;;;0.75;;
48777;SDS011;34578;0.000;0.000;2022-11-02T02:43:51;2.63;;;0.63;;
48777;SDS011;34578;0.000;0.000;2022-11-02T02:48:54;2.30;;;0.60;;
48777;SDS011;34578;0.000;0.000;2022-11-02T02:54:05;2.20;;;0.70;;
48777;SDS011;34578;0.000;0.000;2022-11-02T02:59:20;1.30;;;0.60;;
48777;SDS011;34578;0.000;0.000;2022-11-02T03:04:24;1.77;;;0.60;;
48777;SDS011;34578;0.000;0.000;2022-11-02T03:25:32;8.05;;;0.98;;
48777;SDS011;34578;0.000;0.000;2022-11-02T03:30:51;1.75;;;1.13;;
48777;SDS011;34578;0.000;0.000;2022-11-02T03:36:06;1.05;;;0.50;;
48777;SDS011;34578;0.000;0.000;2022-11-02T03:41:13;1.13;;;0.63;;
48777;SDS011;34578;0.000;0.000;2022-11-02T03:46:16;1.02;;;0.52;;
48777;SDS011;34578;0.000;0.000;2022-11-02T03:51:20;1.25;;;0.52;;
48777;SDS011;34578;0.000;0.000;2022-11-02T04:01:58;0.95;;;0.70;;
48777;SDS011;34578;0.000;0.000;2022-11-02T04:07:02;1.45;;;0.70;;
48777;SDS011;34578;0.000;0.000;2022-11-02T04:12:02;1.25;;;0.70;;
48777;SDS011;34578;0.000;0.000;2022-11-02T04:17:22;0.95;;;0.70;;
48777;SDS011;34578;0.000;0.000;2022-11-02T04:22:45;1.10;;;0.43;;
48777;SDS011;34578;0.000;0.000;2022-11-02T04:28:08;0.63;;;0.40;;
48777;SDS011;34578;0.000;0.000;2022-11-02T04:33:13;1.65;;;0.68;;
48777;SDS011;34578;0.000;0.000;2022-11-02T04:38:50;1.10;;;0.73;;
48777;SDS011;34578;0.000;0.000;2022-11-02T04:43:57;1.25;;;0.65;;
48777;SDS011;34578;0.000;0.000;2022-11-02T04:48:58;2.63;;;0.90;;
48777;SDS011;34578;0.000;0.000;2022-11-02T04:54:00;2.42;;;1.00;;
48777;SDS011;34578;0.000;0.000;2022-11-02T04:59:02;1.00;;;0.60;;
48777;SDS011;34578;0.000;0.000;2022-11-02T05:04:08;1.30;;;0.60;;
48777;SDS011;34578;0.000;0.000;2022-11-02T05:09:09;1.20;;;0.60;;
48777;SDS011;34578;0.000;0.000;2022-11-02T05:19:16;2.17;;;0.70;;
48777;SDS011;34578;0.000;0.000;2022-11-02T05:24:17;2.35;;;1.10;;
48777;SDS011;34578;0.000;0.000;2022-11-02T05:29:17;1.40;;;0.50;;
48777;SDS011;34578;0.000;0.000;2022-11-02T05:34:18;1.52;;;0.40;;
48777;SDS011;34578;0.000;0.000;2022-11-02T05:39:19;2.42;;;0.73;;
48777;SDS011;34578;0.000;0.000;2022-11-02T05:44:20;2.63;;;1.00;;
48777;SDS011;34578;0.000;0.000;2022-11-02T05:49:21;1.98;;;0.65;;
48777;SDS011;34578;0.000;0.000;2022-11-02T05:54:21;3.37;;;0.80;;
48777;SDS011;34578;0.000;0.000;2022-11-02T05:59:22;4.63;;;0.70;;
48777;SDS011;34578;0.000;0.000;2022-11-02T06:04:22;5.87;;;1.40;;
48777;SDS011;34578;0.000;0.000;2022-11-02T06:09:23;2.90;;;0.70;;
48777;SDS011;34578;0.000;0.000;2022-11-02T06:14:23;5.47;;;0.90;;
48777;SDS011;34578;0.000;0.000;2022-11-02T06:19:23;3.40;;;0.83;;
48777;SDS011;34578;0.000;0.000;2022-11-02T06:24:24;1.77;;;0.70;;
48777;SDS011;34578;0.000;0.000;2022-11-02T06:29:24;5.18;;;0.90;;
48777;SDS011;34578;0.000;0.000;2022-11-02T06:34:25;1.40;;;0.70;;
48777;SDS011;34578;0.000;0.000;2022-11-02T06:39:25;3.97;;;0.77;;
48777;SDS011;34578;0.000;0.000;2022-11-02T06:44:26;2.03;;;0.60;;
48777;SDS011;34578;0.000;0.000;2022-11-02T06:49:26;7.53;;;1.05;;
48777;SDS011;34578;0.000;0.000;2022-11-02T06:54:26;2.50;;;0.70;;
48777;SDS011;34578;0.000;0.000;2022-11-02T06:59:27;4.83;;;0.70;;
48777;SDS011;34578;0.000;0.000;2022-11-02T07:04:27;4.93;;;0.83;;
48777;SDS011;34578;0.000;0.000;2022-11-02T07:09:27;4.60;;;0.70;;
48777;SDS011;34578;0.000;0.000;2022-11-02T07:14:28;2.87;;;0.60;;
48777;SDS011;34578;0.000;0.000;2022-11-02T07:19:28;3.03;;;0.70;;
48777;SDS011;34578;0.000;0.000;2022-11-02T07:24:29;4.28;;;1.15;;
48777;SDS011;34578;0.000;0.000;2022-11-02T07:29:29;2.40;;;0.70;;
48777;SDS011;34578;0.000;0.000;2022-11-02T07:34:29;4.40;;;0.70;;
48777;SDS011;34578;0.000;0.000;2022-11-02T07:39:30;6.30;;;0.80;;
48777;SDS011;34578;0.000;0.000;2022-11-02T07:44:30;1.88;;;0.73;;
48777;SDS011;34578;0.000;0.000;2022-11-02T07:49:31;2.67;;;0.73;;
48777;SDS011;34578;0.000;0.000;2022-11-02T07:54:31;4.27;;;0.73;;
48777;SDS011;34578;0.000;0.000;2022-11-02T07:59:31;2.87;;;0.50;;
48777;SDS011;34578;0.000;0.000;2022-11-02T08:04:32;2.37;;;0.80;;
48777;SDS011;34578;0.000;0.000;2022-11-02T08:09:32;2.87;;;0.83;;
48777;SDS011;34578;0.000;0.000;2022-11-02T08:14:33;4.53;;;1.00;;
48777;SDS011;34578;0.000;0.000;2022-11-02T08:19:33;3.60;;;1.07;;
48777;SDS011;34578;0.000;0.000;2022-11-02T08:24:33;3.90;;;0.60;;
48777;SDS011;34578;0.000;0.000;2022-11-02T08:29:34;2.20;;;0.80;;
48777;SDS011;34578;0.000;0.000;2022-11-02T08:34:35;6.13;;;1.80;;
48777;SDS011;34578;0.000;0.000;2022-11-02T08:39:36;6.70;;;0.90;;
48777;SDS011;34578;0.000;0.000;2022-11-02T08:44:36;5.77;;;1.53;;
48777;SDS011;34578;0.000;0.000;2022-11-02T08:49:37;8.80;;;2.10;;
48777;SDS011;34578;0.000;0.000;2022-11-02T08:54:37;9.60;;;2.40;;
48777;SDS011;34578;0.000;0.000;2022-11-02T08:59:37;13.40;;;1.60;;
48777;SDS011;34578;0.000;0.000;2022-11-02T09:04:38;52.57;;;4.93;;
48777;SDS011;34578;0.000;0.000;2022-11-02T09:09:38;37.22;;;4.75;;
48777;SDS011;34578;0.000;0.000;2022-11-02T09:14:39;29.25;;;3.63;;
48777;SDS011;34578;0.000;0.000;2022-11-02T09:19:39;11.70;;;1.57;;
48777;SDS011;34578;0.000;0.000;2022-11-02T09:24:40;9.13;;;1.48;;
48777;SDS011;34578;0.000;0.000;2022-11-02T09:29:40;7.33;;;1.67;;
48777;SDS011;34578;0.000;0.000;2022-11-02T09:34:40;3.53;;;1.30;;
48777;SDS011;34578;0.000;0.000;2022-11-02T09:39:41;3.37;;;0.97;;
48777;SDS011;34578;0.000;0.000;2022-11-02T09:44:46;10.00;;;1.47;;
48777;SDS011;34578;0.000;0.000;2022-11-02T09:49:50;6.18;;;1.40;;
48777;SDS011;34578;0.000;0.000;2022-11-02T09:54:52;5.90;;;1.90;;
48777;SDS011;34578;0.000;0.000;2022-11-02T09:59:55;5.60;;;1.40;;
48777;SDS011;34578;0.000;0.000;2022-11-02T10:25:30;4.82;;;1.17;;
48777;SDS011;34578;0.000;0.000;2022-11-02T10:30:30;8.23;;;1.30;;
48777;SDS011;34578;0.000;0.000;2022-11-02T10:51:10;5.63;;;1.17;;
48777;SDS011;34578;0.000;0.000;2022-11-02T10:56:19;2.97;;;1.02;;
48777;SDS011;34578;0.000;0.000;2022-11-02T11:01:21;4.82;;;1.33;;
48777;SDS011;34578;0.000;0.000;2022-11-02T11:06:22;3.73;;;1.10;;
48777;SDS011;34578;0.000;0.000;2022-11-02T11:11:24;4.32;;;1.73;;
48777;SDS011;34578;0.000;0.000;2022-11-02T11:16:29;2.80;;;1.17;;
48777;SDS011;34578;0.000;0.000;2022-11-02T11:21:36;1.60;;;0.80;;
48777;SDS011;34578;0.000;0.000;2022-11-02T11:26:39;3.33;;;0.93;;
48777;SDS011;34578;0.000;0.000;2022-11-02T11:31:39;1.70;;;0.60;;
48777;SDS011;34578;0.000;0.000;2022-11-02T11:36:40;1.73;;;0.80;;
48777;SDS011;34578;0.000;0.000;2022-11-02T11:41:40;3.15;;;1.48;;
48777;SDS011;34578;0.000;0.000;2022-11-02T11:46:42;4.18;;;1.63;;
48777;SDS011;34578;0.000;0.000;2022-11-02T11:51:48;3.13;;;1.13;;
48777;SDS011;34578;0.000;0.000;2022-11-02T11:56:53;2.85;;;1.10;;
48777;SDS011;34578;0.000;0.000;2022-11-02T12:01:55;3.63;;;0.82;;
48777;SDS011;34578;0.000;0.000;2022-11-02T12:18:23;3.40;;;1.65;;
48777;SDS011;34578;0.000;0.000;2022-11-02T12:44:13;7.18;;;1.58;;
48777;SDS011;34578;0.000;0.000;2022-11-02T12:55:16;8.30;;;1.20;;
48777;SDS011;34578;0.000;0.000;2022-11-02T13:00:23;3.13;;;1.45;;
48777;SDS011;34578;0.000;0.000;2022-11-02T13:05:26;3.28;;;0.93;;
48777;SDS011;34578;0.000;0.000;2022-11-02T13:10:32;3.70;;;1.30;;
48777;SDS011;34578;0.000;0.000;2022-11-02T13:15:39;5.32;;;1.55;;
48777;SDS011;34578;0.000;0.000;2022-11-02T13:20:43;3.85;;;1.00;;
48777;SDS011;34578;0.000;0.000;2022-11-02T13:25:49;4.10;;;1.00;;
48777;SDS011;34578;0.000;0.000;2022-11-02T13:30:58;3.10;;;1.10;;
48777;SDS011;34578;0.000;0.000;2022-11-02T13:35:58;2.53;;;0.90;;
48777;SDS011;34578;0.000;0.000;2022-11-02T13:51:45;2.25;;;0.90;;
48777;SDS011;34578;0.000;0.000;2022-11-02T13:56:51;4.00;;;1.15;;
48777;SDS011;34578;0.000;0.000;2022-11-02T14:01:54;2.75;;;1.27;;
48777;SDS011;34578;0.000;0.000;2022-11-02T14:07:00;5.57;;;1.10;;
48777;SDS011;34578;0.000;0.000;2022-11-02T14:12:12;1.02;;;0.70;;
48777;SDS011;34578;0.000;0.000;2022-11-02T14:17:26;1.75;;;0.82;;
48777;SDS011;34578;0.000;0.000;2022-11-02T14:22:26;3.15;;;1.02;;
48777;SDS011;34578;0.000;0.000;2022-11-02T14:27:30;2.47;;;0.90;;
48777;SDS011;34578;0.000;0.000;2022-11-02T14:48:03;1.33;;;0.68;;
48777;SDS011;34578;0.000;0.000;2022-11-02T14:53:06;0.60;;;0.50;;
48777;SDS011;34578;0.000;0.000;2022-11-02T14:58:15;2.72;;;0.98;;
48777;SDS011;34578;0.000;0.000;2022-11-02T15:08:23;3.78;;;0.77;;
48777;SDS011;34578;0.000;0.000;2022-11-02T15:13:32;3.30;;;0.70;;
48777;SDS011;34578;0.000;0.000;2022-11-02T15:18:35;1.17;;;0.75;;
48777;SDS011;34578;0.000;0.000;2022-11-02T15:28:46;2.70;;;0.70;;
48777;SDS011;34578;0.000;0.000;2022-11-02T15:33:50;2.83;;;0.60;;
48777;SDS011;34578;0.000;0.000;2022-11-02T15:38:53;0.70;;;0.70;;
48777;SDS011;34578;0.000;0.000;2022-11-02T16:00:19;2.13;;;0.50;;
48777;SDS011;34578;0.000;0.000;2022-11-02T16:05:24;2.08;;;0.70;;
48777;SDS011;34578;0.000;0.000;2022-11-02T16:10:28;1.73;;;0.60;;
48777;SDS011;34578;0.000;0.000;2022-11-02T16:15:28;1.33;;;0.60;;
48777;SDS011;34578;0.000;0.000;2022-11-02T16:20:32;1.67;;;0.60;;
48777;SDS011;34578;0.000;0.000;2022-11-02T16:25:39;1.17;;;0.60;;
48777;SDS011;34578;0.000;0.000;2022-11-02T16:30:59;1.08;;;0.80;;
48777;SDS011;34578;0.000;0.000;2022-11-02T16:36:31;2.33;;;0.70;;
48777;SDS011;34578;0.000;0.000;2022-11-02T16:41:38;1.85;;;0.70;;
48777;SDS011;34578;0.000;0.000;2022-11-02T16:46:47;0.60;;;0.40;;
48777;SDS011;34578;0.000;0.000;2022-11-02T16:51:53;1.77;;;0.82;;
48777;SDS011;34578;0.000;0.000;2022-11-02T16:56:57;1.20;;;0.60;;
48777;SDS011;34578;0.000;0.000;2022-11-02T17:02:08;1.42;;;0.73;;
48777;SDS011;34578;0.000;0.000;2022-11-02T17:12:27;2.60;;;0.68;;
48777;SDS011;34578;0.000;0.000;2022-11-02T17:17:35;1.33;;;0.68;;
48777;SDS011;34578;0.000;0.000;2022-11-02T17:22:55;0.50;;;0.50;;
48777;SDS011;34578;0.000;0.000;2022-11-02T17:27:58;3.03;;;1.15;;
48777;SDS011;34578;0.000;0.000;2022-11-02T17:33:06;1.48;;;0.60;;
48777;SDS011;34578;0.000;0.000;2022-11-02T17:38:07;0.98;;;0.50;;
48777;SDS011;34578;0.000;0.000;2022-11-02T17:43:08;0.70;;;0.50;;
48777;SDS011;34578;0.000;0.000;2022-11-02T17:48:08;1.63;;;0.63;;
48777;SDS011;34578;0.000;0.000;2022-11-02T17:53:10;1.30;;;0.60;;
48777;SDS011;34578;0.000;0.000;2022-11-02T17:58:11;2.17;;;0.60;;
48777;SDS011;34578;0.000;0.000;2022-11-02T18:03:14;2.00;;;0.50;;
48777;SDS011;34578;0.000;0.000;2022-11-02T18:08:16;3.67;;;0.75;;
48777;SDS011;34578;0.000;0.000;2022-11-02T18:13:20;4.97;;;0.88;;
48777;SDS011;34578;0.000;0.000;2022-11-02T18:18:22;2.07;;;0.60;;
48777;SDS011;34578;0.000;0.000;2022-11-02T18:23:23;1.83;;;0.57;;
48777;SDS011;34578;0.000;0.000;2022-11-02T18:28:23;0.70;;;0.53;;
48777;SDS011;34578;0.000;0.000;2022-11-02T18:33:24;0.53;;;0.30;;
48777;SDS011;34578;0.000;0.000;2022-11-02T18:38:24;0.73;;;0.50;;
48777;SDS011;34578;0.000;0.000;2022-11-02T18:43:24;0.80;;;0.53;;
48777;SDS011;34578;0.000;0.000;2022-11-02T18:48:25;0.63;;;0.40;;
48777;SDS011;34578;0.000;0.000;2022-11-02T18:53:25;1.90;;;0.80;;
48777;SDS011;34578;0.000;0.000;2022-11-02T18:58:25;1.30;;;0.60;;
48777;SDS011;34578;0.000;0.000;2022-11-02T19:03:26;1.03;;;0.50;;
48777;SDS011;34578;0.000;0.000;2022-11-02T19:08:26;0.85;;;0.30;;
48777;SDS011;34578;0.000;0.000;2022-11-02T19:13:45;1.10;;;0.60;;
48777;SDS011;34578;0.000;0.000;2022-11-02T19:18:45;0.93;;;0.40;;
48777;SDS011;34578;0.000;0.000;2022-11-02T19:23:46;1.90;;;0.73;;
48777;SDS011;34578;0.000;0.000;2022-11-02T19:28:46;2.37;;;0.80;;
48777;SDS011;34578;0.000;0.000;2022-11-02T19:33:46;1.10;;;0.70;;
48777;SDS011;34578;0.000;0.000;2022-11-02T19:38:47;1.27;;;0.60;;
48777;SDS011;34578;0.000;0.000;2022-11-02T19:43:47;1.00;;;0.40;;
48777;SDS011;34578;0.000;0.000;2022-11-02T19:48:48;1.00;;;0.50;;
48777;SDS011;34578;0.000;0.000;2022-11-02T19:53:51;1.55;;;0.70;;
48777;SDS011;34578;0.000;0.000;2022-11-02T19:58:54;1.45;;;0.50;;
48777;SDS011;34578;0.000;0.000;2022-11-02T20:03:55;0.77;;;0.57;;
48777;SDS011;34578;0.000;0.000;2022-11-02T20:08:56;2.63;;;0.98;;
48777;SDS011;34578;0.000;0.000;2022-11-02T20:13:58;1.20;;;0.50;;
48777;SDS011;34578;0.000;0.000;2022-11-02T20:19:00;0.75;;;0.40;;
48777;SDS011;34578;0.000;0.000;2022-11-02T20:24:01;1.35;;;0.60;;
48777;SDS011;34578;0.000;0.000;2022-11-02T20:29:02;1.02;;;0.40;;
48777;SDS011;34578;0.000;0.000;2022-11-02T20:34:04;0.40;;;0.30;;
48777;SDS011;34578;0.000;0.000;2022-11-02T20:39:07;0.75;;;0.50;;
48777;SDS011;34578;0.000;0.000;2022-11-02T20:44:09;0.82;;;0.38;;
48777;SDS011;34578;0.000;0.000;2022-11-02T20:49:10;0.87;;;0.40;;
48777;SDS011;34578;0.000;0.000;2022-11-02T20:54:10;1.20;;;0.68;;
48777;SDS011;34578;0.000;0.000;2022-11-02T20:59:12;1.13;;;0.47;;
48777;SDS011;34578;0.000;0.000;2022-11-02T21:04:12;0.60;;;0.40;;
48777;SDS011;34578;0.000;0.000;2022-11-02T21:09:12;0.50;;;0.40;;
48777;SDS011;34578;0.000;0.000;2022-11-02T21:14:13;0.97;;;0.20;;
48777;SDS011;34578;0.000;0.000;2022-11-02T21:19:13;0.75;;;0.50;;
48777;SDS011;34578;0.000;0.000;2022-11-02T21:24:13;0.73;;;0.33;;
48777;SDS011;34578;0.000;0.000;2022-11-02T21:29:14;0.60;;;0.50;;
48777;SDS011;34578;0.000;0.000;2022-11-02T21:34:14;1.33;;;0.60;;
48777;SDS011;34578;0.000;0.000;2022-11-02T21:39:15;0.73;;;0.40;;
48777;SDS011;34578;0.000;0.000;2022-11-02T21:44:15;1.60;;;0.40;;
48777;SDS011;34578;0.000;0.000;2022-11-02T21:49:15;0.53;;;0.30;;
48777;SDS011;34578;0.000;0.000;2022-11-02T21:54:16;0.80;;;0.33;;
48777;SDS011;34578;0.000;0.000;2022-11-02T21:59:16;0.30;;;0.30;;
48777;SDS011;34578;0.000;0.000;2022-11-02T22:04:23;0.73;;;0.50;;
48777;SDS011;34578;0.000;0.000;2022-11-02T22:09:27;0.50;;;0.38;;
48777;SDS011;34578;0.000;0.000;2022-11-02T22:14:28;1.60;;;0.60;;
48777;SDS011;34578;0.000;0.000;2022-11-02T22:19:28;1.60;;;0.70;;
48777;SDS011;34578;0.000;0.000;2022-11-02T22:24:28;1.00;;;0.40;;
48777;SDS011;34578;0.000;0.000;2022-11-02T22:29:29;0.80;;;0.53;;
48777;SDS011;34578;0.000;0.000;2022-11-02T22:34:29;1.13;;;0.40;;
48777;SDS011;34578;0.000;0.000;2022-11-02T22:39:29;1.90;;;0.33;;
48777;SDS011;34578;0.000;0.000;2022-11-02T22:44:30;2.57;;;0.30;;
48777;SDS011;34578;0.000;0.000;2022-11-02T22:49:30;2.60;;;0.60;;
48777;SDS011;34578;0.000;0.000;2022-11-02T22:54:31;1.17;;;0.45;;
48777;SDS011;34578;0.000;0.000;2022-11-02T22:59:31;0.80;;;0.50;;
48777;SDS011;34578;0.000;0.000;2022-11-02T23:04:31;1.70;;;0.40;;
48777;SDS011;34578;0.000;0.000;2022-11-02T23:09:32;1.33;;;0.60;;
48777;SDS011;34578;0.000;0.000;2022-11-02T23:14:32;0.60;;;0.50;;
48777;SDS011;34578;0.000;0.000;2022-11-02T23:19:32;0.93;;;0.60;;
48777;SDS011;34578;0.000;0.000;2022-11-02T23:24:37;2.13;;;0.68;;
48777;SDS011;34578;0.000;0.000;2022-11-02T23:29:57;3.50;;;0.77;;
48777;SDS011;34578;0.000;0.000;2022-11-02T23:35:16;0.95;;;0.57;;
48777;SDS011;34578;0.000;0.000;2022-11-02T23:40:34;1.85;;;0.60;;
48777;SDS011;34578;0.000;0.000;2022-11-02T23:45:35;0.90;;;0.67;;
48777;SDS011;34578;0.000;0.000;2022-11-02T23:50:35;0.97;;;0.53;;
48777;SDS011;34578;0.000;0.000;2022-11-02T23:55:55;1.05;;;0.50;;
